sensor_id;sensor_type;location;lat;lon;timestamp;pressure;altitude;pressure_sealevel;temperature;humidity
56420;BME280;42323;52.170;7.538;2023-05-19T00:00:18;102264.97;;;9.38;nan
56420;BME280;42323;52.170;7.538;2023-05-19T00:02:45;102260.13;;;9.34;nan
56420;BME280;42323;52.170;7.538;2023-05-19T00:05:12;102269.56;;;9.25;nan
56420;BME280;42323;52.170;7.538;2023-05-19T00:07:42;102267.59;;;9.17;nan
56420;BME280;42323;52.170;7.538;2023-05-19T00:10:10;102264.38;;;9.14;nan
56420;BME280;42323;52.170;7.538;2023-05-19T00:12:37;102257.88;;;9.08;nan
56420;BME280;42323;52.170;7.538;2023-05-19T00:15:04;102258.00;;;9.07;nan
56420;BME280;42323;52.170;7.538;2023-05-19T00:17:31;102262.66;;;9.03;nan
56420;BME280;42323;52.170;7.538;2023-05-19T00:19:59;102269.91;;;8.99;nan
56420;BME280;42323;52.170;7.538;2023-05-19T00:22:26;102266.38;;;8.89;nan
56420;BME280;42323;52.170;7.538;2023-05-19T00:24:53;102270.31;;;8.95;nan
56420;BME280;42323;52.170;7.538;2023-05-19T00:27:20;102265.56;;;8.89;nan
56420;BME280;42323;52.170;7.538;2023-05-19T00:29:46;102263.06;;;8.87;nan
56420;BME280;42323;52.170;7.538;2023-05-19T00:32:13;102263.31;;;8.84;nan
56420;BME280;42323;52.170;7.538;2023-05-19T00:34:40;102260.25;;;8.79;nan
56420;BME280;42323;52.170;7.538;2023-05-19T00:37:07;102254.31;;;8.77;nan
56420;BME280;42323;52.170;7.538;2023-05-19T00:39:34;102251.00;;;8.75;nan
56420;BME280;42323;52.170;7.538;2023-05-19T00:42:00;102250.41;;;8.71;nan
56420;BME280;42323;52.170;7.538;2023-05-19T00:44:28;102247.47;;;8.65;nan
56420;BME280;42323;52.170;7.538;2023-05-19T00:46:54;102247.19;;;8.68;nan
56420;BME280;42323;52.170;7.538;2023-05-19T00:49:21;102239.41;;;8.57;nan
56420;BME280;42323;52.170;7.538;2023-05-19T00:51:48;102248.78;;;8.59;nan
56420;BME280;42323;52.170;7.538;2023-05-19T00:54:15;102246.66;;;8.53;nan
56420;BME280;42323;52.170;7.538;2023-05-19T00:56:41;102236.00;;;8.45;nan
56420;BME280;42323;52.170;7.538;2023-05-19T00:59:08;102245.09;;;8.50;nan
56420;BME280;42323;52.170;7.538;2023-05-19T01:01:35;102242.88;;;8.46;nan
56420;BME280;42323;52.170;7.538;2023-05-19T01:04:02;102248.94;;;8.46;nan
56420;BME280;42323;52.170;7.538;2023-05-19T01:06:29;102250.25;;;8.41;nan
56420;BME280;42323;52.170;7.538;2023-05-19T01:08:56;102245.34;;;8.36;nan
56420;BME280;42323;52.170;7.538;2023-05-19T01:11:23;102253.19;;;8.36;nan
56420;BME280;42323;52.170;7.538;2023-05-19T01:13:50;102249.41;;;8.29;nan
56420;BME280;42323;52.170;7.538;2023-05-19T01:24:23;102251.53;;;8.24;nan
56420;BME280;42323;52.170;7.538;2023-05-19T01:27:17;102232.34;;;8.14;nan
56420;BME280;42323;52.170;7.538;2023-05-19T01:32:57;102235.44;;;8.08;nan
56420;BME280;42323;52.170;7.538;2023-05-19T01:35:25;102242.03;;;8.12;nan
56420;BME280;42323;52.170;7.538;2023-05-19T01:37:55;102235.16;;;8.11;nan
56420;BME280;42323;52.170;7.538;2023-05-19T01:40:25;102240.53;;;8.09;nan
56420;BME280;42323;52.170;7.538;2023-05-19T01:42:55;102241.59;;;8.07;nan
56420;BME280;42323;52.170;7.538;2023-05-19T01:45:24;102232.69;;;7.98;nan
56420;BME280;42323;52.170;7.538;2023-05-19T01:47:53;102232.09;;;7.94;nan
56420;BME280;42323;52.170;7.538;2023-05-19T01:50:21;102250.72;;;8.01;nan
56420;BME280;42323;52.170;7.538;2023-05-19T01:52:47;102244.69;;;8.00;nan
56420;BME280;42323;52.170;7.538;2023-05-19T01:55:14;102243.94;;;7.98;nan
56420;BME280;42323;52.170;7.538;2023-05-19T01:58:07;102245.13;;;7.94;nan
56420;BME280;42323;52.170;7.538;2023-05-19T02:06:02;102254.75;;;7.94;nan
56420;BME280;42323;52.170;7.538;2023-05-19T02:08:50;102248.97;;;7.90;nan
56420;BME280;42323;52.170;7.538;2023-05-19T02:11:46;102255.94;;;7.90;nan
56420;BME280;42323;52.170;7.538;2023-05-19T02:14:24;102252.03;;;7.84;nan
56420;BME280;42323;52.170;7.538;2023-05-19T02:16:56;102244.44;;;7.81;nan
56420;BME280;42323;52.170;7.538;2023-05-19T02:19:29;102246.94;;;7.83;nan
56420;BME280;42323;52.170;7.538;2023-05-19T02:21:57;102252.72;;;7.75;nan
56420;BME280;42323;52.170;7.538;2023-05-19T02:24:24;102250.34;;;7.72;nan
56420;BME280;42323;52.170;7.538;2023-05-19T02:26:52;102253.09;;;7.70;nan
56420;BME280;42323;52.170;7.538;2023-05-19T02:29:19;102257.00;;;7.65;nan
56420;BME280;42323;52.170;7.538;2023-05-19T02:31:46;102241.81;;;7.59;nan
56420;BME280;42323;52.170;7.538;2023-05-19T02:34:13;102253.66;;;7.63;nan
56420;BME280;42323;52.170;7.538;2023-05-19T02:36:41;102240.03;;;7.59;nan
56420;BME280;42323;52.170;7.538;2023-05-19T02:39:11;102236.34;;;7.62;nan
56420;BME280;42323;52.170;7.538;2023-05-19T02:41:38;102238.25;;;7.60;nan
56420;BME280;42323;52.170;7.538;2023-05-19T02:44:04;102231.94;;;7.51;nan
56420;BME280;42323;52.170;7.538;2023-05-19T02:46:31;102232.81;;;7.51;nan
56420;BME280;42323;52.170;7.538;2023-05-19T02:48:58;102233.97;;;7.47;nan
56420;BME280;42323;52.170;7.538;2023-05-19T02:51:25;102238.47;;;7.45;nan
56420;BME280;42323;52.170;7.538;2023-05-19T02:53:51;102246.41;;;7.44;nan
56420;BME280;42323;52.170;7.538;2023-05-19T02:56:18;102236.31;;;7.39;nan
56420;BME280;42323;52.170;7.538;2023-05-19T02:58:44;102239.41;;;7.44;nan
56420;BME280;42323;52.170;7.538;2023-05-19T03:01:11;102236.31;;;7.39;nan
56420;BME280;42323;52.170;7.538;2023-05-19T03:03:38;102231.81;;;7.41;nan
56420;BME280;42323;52.170;7.538;2023-05-19T03:06:04;102233.13;;;7.36;nan
56420;BME280;42323;52.170;7.538;2023-05-19T03:08:34;102222.31;;;7.29;nan
56420;BME280;42323;52.170;7.538;2023-05-19T03:11:01;102220.66;;;7.28;nan
56420;BME280;42323;52.170;7.538;2023-05-19T03:13:28;102224.56;;;7.22;nan
56420;BME280;42323;52.170;7.538;2023-05-19T03:15:55;102220.16;;;7.23;nan
56420;BME280;42323;52.170;7.538;2023-05-19T03:18:26;102223.34;;;7.15;nan
56420;BME280;42323;52.170;7.538;2023-05-19T03:20:53;102226.50;;;7.08;nan
56420;BME280;42323;52.170;7.538;2023-05-19T03:23:20;102222.25;;;7.07;nan
56420;BME280;42323;52.170;7.538;2023-05-19T03:25:47;102224.38;;;7.01;nan
56420;BME280;42323;52.170;7.538;2023-05-19T03:28:13;102231.72;;;7.08;nan
56420;BME280;42323;52.170;7.538;2023-05-19T03:30:40;102237.28;;;7.03;nan
56420;BME280;42323;52.170;7.538;2023-05-19T03:33:07;102221.38;;;6.95;nan
56420;BME280;42323;52.170;7.538;2023-05-19T03:35:33;102229.69;;;7.00;nan
56420;BME280;42323;52.170;7.538;2023-05-19T03:38:00;102227.19;;;6.98;nan
56420;BME280;42323;52.170;7.538;2023-05-19T03:40:27;102228.59;;;6.91;nan
56420;BME280;42323;52.170;7.538;2023-05-19T03:42:53;102230.25;;;6.92;nan
56420;BME280;42323;52.170;7.538;2023-05-19T03:45:20;102233.28;;;6.86;nan
56420;BME280;42323;52.170;7.538;2023-05-19T03:47:46;102227.72;;;6.79;nan
56420;BME280;42323;52.170;7.538;2023-05-19T03:50:13;102229.75;;;6.87;nan
56420;BME280;42323;52.170;7.538;2023-05-19T03:52:39;102235.69;;;6.89;nan
56420;BME280;42323;52.170;7.538;2023-05-19T03:55:11;102235.47;;;6.92;nan
56420;BME280;42323;52.170;7.538;2023-05-19T03:57:40;102229.31;;;6.93;nan
56420;BME280;42323;52.170;7.538;2023-05-19T04:00:07;102229.53;;;6.90;nan
56420;BME280;42323;52.170;7.538;2023-05-19T04:02:36;102240.78;;;6.91;nan
56420;BME280;42323;52.170;7.538;2023-05-19T04:05:03;102238.50;;;6.86;nan
56420;BME280;42323;52.170;7.538;2023-05-19T04:07:30;102239.34;;;6.87;nan
56420;BME280;42323;52.170;7.538;2023-05-19T04:09:57;102243.84;;;6.85;nan
56420;BME280;42323;52.170;7.538;2023-05-19T04:12:23;102231.16;;;6.80;nan
56420;BME280;42323;52.170;7.538;2023-05-19T04:14:50;102232.47;;;6.86;nan
56420;BME280;42323;52.170;7.538;2023-05-19T04:17:17;102240.06;;;6.89;nan
56420;BME280;42323;52.170;7.538;2023-05-19T04:19:43;102247.66;;;6.92;nan
56420;BME280;42323;52.170;7.538;2023-05-19T04:22:10;102248.97;;;6.97;nan
56420;BME280;42323;52.170;7.538;2023-05-19T04:24:36;102248.03;;;6.98;nan
56420;BME280;42323;52.170;7.538;2023-05-19T04:27:03;102256.94;;;7.07;nan
56420;BME280;42323;52.170;7.538;2023-05-19T04:29:30;102254.13;;;7.10;nan
56420;BME280;42323;52.170;7.538;2023-05-19T04:31:57;102245.47;;;7.10;nan
56420;BME280;42323;52.170;7.538;2023-05-19T04:34:26;102260.44;;;7.19;nan
56420;BME280;42323;52.170;7.538;2023-05-19T04:36:53;102248.22;;;7.19;nan
56420;BME280;42323;52.170;7.538;2023-05-19T04:39:20;102256.31;;;7.27;nan
56420;BME280;42323;52.170;7.538;2023-05-19T04:41:47;102258.59;;;7.32;nan
56420;BME280;42323;52.170;7.538;2023-05-19T04:44:13;102250.28;;;7.38;nan
56420;BME280;42323;52.170;7.538;2023-05-19T04:46:43;102249.84;;;7.44;nan
56420;BME280;42323;52.170;7.538;2023-05-19T04:49:10;102255.66;;;7.48;nan
56420;BME280;42323;52.170;7.538;2023-05-19T04:51:40;102256.28;;;7.51;nan
56420;BME280;42323;52.170;7.538;2023-05-19T04:54:07;102252.50;;;7.56;nan
56420;BME280;42323;52.170;7.538;2023-05-19T04:56:35;102252.22;;;7.59;nan
56420;BME280;42323;52.170;7.538;2023-05-19T04:59:02;102255.09;;;7.67;nan
56420;BME280;42323;52.170;7.538;2023-05-19T05:01:29;102242.31;;;7.75;nan
56420;BME280;42323;52.170;7.538;2023-05-19T05:03:56;102246.81;;;7.84;nan
56420;BME280;42323;52.170;7.538;2023-05-19T05:06:24;102248.00;;;7.91;nan
56420;BME280;42323;52.170;7.538;2023-05-19T05:08:51;102248.34;;;7.98;nan
56420;BME280;42323;52.170;7.538;2023-05-19T05:11:18;102238.38;;;8.03;nan
56420;BME280;42323;52.170;7.538;2023-05-19T05:13:45;102234.13;;;8.13;nan
56420;BME280;42323;52.170;7.538;2023-05-19T05:16:12;102248.47;;;8.30;nan
56420;BME280;42323;52.170;7.538;2023-05-19T05:18:39;102255.59;;;8.39;nan
56420;BME280;42323;52.170;7.538;2023-05-19T05:21:09;102247.16;;;8.47;nan
56420;BME280;42323;52.170;7.538;2023-05-19T05:23:36;102240.84;;;8.49;nan
56420;BME280;42323;52.170;7.538;2023-05-19T05:26:13;102242.63;;;8.60;nan
56420;BME280;42323;52.170;7.538;2023-05-19T05:28:42;102248.50;;;8.73;nan
56420;BME280;42323;52.170;7.538;2023-05-19T05:31:08;102246.22;;;8.80;nan
56420;BME280;42323;52.170;7.538;2023-05-19T05:33:35;102240.25;;;8.89;nan
56420;BME280;42323;52.170;7.538;2023-05-19T05:36:03;102238.94;;;8.95;nan
56420;BME280;42323;52.170;7.538;2023-05-19T05:38:30;102225.13;;;8.93;nan
56420;BME280;42323;52.170;7.538;2023-05-19T05:40:56;102244.56;;;9.11;nan
56420;BME280;42323;52.170;7.538;2023-05-19T05:43:23;102233.44;;;9.19;nan
56420;BME280;42323;52.170;7.538;2023-05-19T05:45:50;102234.75;;;9.24;nan
56420;BME280;42323;52.170;7.538;2023-05-19T05:48:17;102237.41;;;9.34;nan
56420;BME280;42323;52.170;7.538;2023-05-19T05:50:44;102234.84;;;9.44;nan
56420;BME280;42323;52.170;7.538;2023-05-19T05:53:18;102230.06;;;9.49;nan
56420;BME280;42323;52.170;7.538;2023-05-19T05:55:46;102228.88;;;9.63;nan
56420;BME280;42323;52.170;7.538;2023-05-19T05:58:13;102231.28;;;9.75;nan
56420;BME280;42323;52.170;7.538;2023-05-19T06:00:41;102238.00;;;9.89;nan
56420;BME280;42323;52.170;7.538;2023-05-19T06:03:13;102234.44;;;10.00;nan
56420;BME280;42323;52.170;7.538;2023-05-19T06:05:42;102234.63;;;10.18;nan
56420;BME280;42323;52.170;7.538;2023-05-19T06:08:08;102235.53;;;10.28;nan
56420;BME280;42323;52.170;7.538;2023-05-19T06:10:35;102230.44;;;10.36;nan
56420;BME280;42323;52.170;7.538;2023-05-19T06:13:30;102236.28;;;10.49;nan
56420;BME280;42323;52.170;7.538;2023-05-19T06:15:57;102229.09;;;10.51;nan
56420;BME280;42323;52.170;7.538;2023-05-19T06:18:25;102233.78;;;10.58;nan
56420;BME280;42323;52.170;7.538;2023-05-19T06:20:52;102224.41;;;10.55;nan
56420;BME280;42323;52.170;7.538;2023-05-19T06:23:18;102239.03;;;10.77;nan
56420;BME280;42323;52.170;7.538;2023-05-19T06:25:45;102227.88;;;10.85;nan
56420;BME280;42323;52.170;7.538;2023-05-19T06:28:12;102228.84;;;10.93;nan
56420;BME280;42323;52.170;7.538;2023-05-19T06:30:38;102229.38;;;11.07;nan
56420;BME280;42323;52.170;7.538;2023-05-19T06:33:05;102231.16;;;11.16;nan
56420;BME280;42323;52.170;7.538;2023-05-19T06:35:38;102233.66;;;11.27;nan
56420;BME280;42323;52.170;7.538;2023-05-19T06:38:17;102192.25;;;11.11;nan
56420;BME280;42323;52.170;7.538;2023-05-19T06:40:47;102215.38;;;11.35;nan
56420;BME280;42323;52.170;7.538;2023-05-19T06:43:13;102230.53;;;11.51;nan
56420;BME280;42323;52.170;7.538;2023-05-19T06:45:40;102234.09;;;11.60;nan
56420;BME280;42323;52.170;7.538;2023-05-19T06:48:15;102245.94;;;11.73;nan
56420;BME280;42323;52.170;7.538;2023-05-19T06:50:41;102230.88;;;11.75;nan
56420;BME280;42323;52.170;7.538;2023-05-19T06:53:08;102240.91;;;11.99;nan
56420;BME280;42323;52.170;7.538;2023-05-19T06:55:37;102226.81;;;12.00;nan
56420;BME280;42323;52.170;7.538;2023-05-19T06:58:15;102228.78;;;12.16;nan
56420;BME280;42323;52.170;7.538;2023-05-19T07:00:42;102231.34;;;12.26;nan
56420;BME280;42323;52.170;7.538;2023-05-19T07:03:09;102229.50;;;12.36;nan
56420;BME280;42323;52.170;7.538;2023-05-19T07:05:36;102230.34;;;12.54;nan
56420;BME280;42323;52.170;7.538;2023-05-19T07:08:03;102227.81;;;12.63;nan
56420;BME280;42323;52.170;7.538;2023-05-19T07:10:30;102229.69;;;12.70;nan
56420;BME280;42323;52.170;7.538;2023-05-19T07:12:56;102229.06;;;12.76;nan
56420;BME280;42323;52.170;7.538;2023-05-19T07:15:23;102223.72;;;12.86;nan
56420;BME280;42323;52.170;7.538;2023-05-19T07:17:50;102222.84;;;12.95;nan
56420;BME280;42323;52.170;7.538;2023-05-19T07:20:17;102218.59;;;13.02;nan
56420;BME280;42323;52.170;7.538;2023-05-19T07:22:43;102219.19;;;13.14;nan
56420;BME280;42323;52.170;7.538;2023-05-19T07:25:10;102208.66;;;13.14;nan
56420;BME280;42323;52.170;7.538;2023-05-19T07:27:36;102219.47;;;13.29;nan
56420;BME280;42323;52.170;7.538;2023-05-19T07:30:03;102223.81;;;13.38;nan
56420;BME280;42323;52.170;7.538;2023-05-19T07:32:30;102222.69;;;13.41;nan
56420;BME280;42323;52.170;7.538;2023-05-19T07:34:56;102211.56;;;13.55;nan
56420;BME280;42323;52.170;7.538;2023-05-19T07:37:23;102208.47;;;13.60;nan
56420;BME280;42323;52.170;7.538;2023-05-19T07:39:50;102215.94;;;13.72;nan
56420;BME280;42323;52.170;7.538;2023-05-19T07:42:16;102208.91;;;13.81;nan
56420;BME280;42323;52.170;7.538;2023-05-19T07:44:43;102211.25;;;13.92;nan
56420;BME280;42323;52.170;7.538;2023-05-19T07:47:09;102211.34;;;14.09;nan
56420;BME280;42323;52.170;7.538;2023-05-19T07:49:36;102218.78;;;14.21;nan
56420;BME280;42323;52.170;7.538;2023-05-19T07:52:03;102220.59;;;14.29;nan
56420;BME280;42323;52.170;7.538;2023-05-19T07:54:29;102214.53;;;14.45;nan
56420;BME280;42323;52.170;7.538;2023-05-19T07:56:56;102204.34;;;14.50;nan
56420;BME280;42323;52.170;7.538;2023-05-19T07:59:23;102202.56;;;14.59;nan
56420;BME280;42323;52.170;7.538;2023-05-19T08:01:49;102202.75;;;14.73;nan
56420;BME280;42323;52.170;7.538;2023-05-19T08:04:16;102207.19;;;14.89;nan
56420;BME280;42323;52.170;7.538;2023-05-19T08:06:43;102201.25;;;14.95;nan
56420;BME280;42323;52.170;7.538;2023-05-19T08:09:10;102200.09;;;14.98;nan
56420;BME280;42323;52.170;7.538;2023-05-19T08:11:37;102194.47;;;15.01;nan
56420;BME280;42323;52.170;7.538;2023-05-19T08:14:03;102192.34;;;15.04;nan
56420;BME280;42323;52.170;7.538;2023-05-19T08:16:30;102197.91;;;15.26;nan
56420;BME280;42323;52.170;7.538;2023-05-19T08:18:57;102193.44;;;15.35;nan
56420;BME280;42323;52.170;7.538;2023-05-19T08:21:26;102190.59;;;15.44;nan
56420;BME280;42323;52.170;7.538;2023-05-19T08:23:52;102196.19;;;15.57;nan
56420;BME280;42323;52.170;7.538;2023-05-19T08:26:19;102190.38;;;15.62;nan
56420;BME280;42323;52.170;7.538;2023-05-19T08:28:46;102190.06;;;15.73;nan
56420;BME280;42323;52.170;7.538;2023-05-19T08:31:13;102180.25;;;15.82;nan
56420;BME280;42323;52.170;7.538;2023-05-19T08:33:40;102180.34;;;15.97;nan
56420;BME280;42323;52.170;7.538;2023-05-19T08:36:06;102172.22;;;16.07;nan
56420;BME280;42323;52.170;7.538;2023-05-19T08:38:33;102169.63;;;16.21;nan
56420;BME280;42323;52.170;7.538;2023-05-19T08:41:00;102173.28;;;16.43;nan
56420;BME280;42323;52.170;7.538;2023-05-19T08:43:27;102161.41;;;16.62;nan
56420;BME280;42323;52.170;7.538;2023-05-19T08:45:54;102161.28;;;16.78;nan
56420;BME280;42323;52.170;7.538;2023-05-19T08:48:21;102158.94;;;16.84;nan
56420;BME280;42323;52.170;7.538;2023-05-19T08:53:35;102151.41;;;17.10;nan
56420;BME280;42323;52.170;7.538;2023-05-19T08:56:11;102151.59;;;17.23;nan
56420;BME280;42323;52.170;7.538;2023-05-19T08:58:41;102152.34;;;17.32;nan
56420;BME280;42323;52.170;7.538;2023-05-19T09:01:10;102145.56;;;17.44;nan
56420;BME280;42323;52.170;7.538;2023-05-19T09:03:39;102158.88;;;17.66;nan
56420;BME280;42323;52.170;7.538;2023-05-19T09:06:06;102152.66;;;17.88;nan
56420;BME280;42323;52.170;7.538;2023-05-19T09:08:38;102156.03;;;17.97;nan
56420;BME280;42323;52.170;7.538;2023-05-19T09:11:05;102149.81;;;17.90;nan
56420;BME280;42323;52.170;7.538;2023-05-19T09:13:32;102149.22;;;18.09;nan
56420;BME280;42323;52.170;7.538;2023-05-19T09:15:59;102141.19;;;18.24;nan
56420;BME280;42323;52.170;7.538;2023-05-19T09:18:26;102146.00;;;18.35;nan
56420;BME280;42323;52.170;7.538;2023-05-19T09:21:04;102143.97;;;18.59;nan
56420;BME280;42323;52.170;7.538;2023-05-19T09:23:31;102143.84;;;18.95;nan
56420;BME280;42323;52.170;7.538;2023-05-19T09:26:03;102137.72;;;18.94;nan
56420;BME280;42323;52.170;7.538;2023-05-19T09:28:35;102133.41;;;18.93;nan
56420;BME280;42323;52.170;7.538;2023-05-19T09:31:04;102131.72;;;19.14;nan
56420;BME280;42323;52.170;7.538;2023-05-19T09:33:35;102131.84;;;19.40;nan
56420;BME280;42323;52.170;7.538;2023-05-19T09:36:02;102136.38;;;19.46;nan
56420;BME280;42323;52.170;7.538;2023-05-19T09:38:31;102125.78;;;19.53;nan
56420;BME280;42323;52.170;7.538;2023-05-19T09:40:59;102134.78;;;19.59;nan
56420;BME280;42323;52.170;7.538;2023-05-19T09:43:30;102127.59;;;20.07;nan
56420;BME280;42323;52.170;7.538;2023-05-19T09:46:06;102123.34;;;20.26;nan
56420;BME280;42323;52.170;7.538;2023-05-19T09:48:34;102120.66;;;20.46;nan
56420;BME280;42323;52.170;7.538;2023-05-19T09:51:03;102121.25;;;21.08;nan
56420;BME280;42323;52.170;7.538;2023-05-19T09:53:32;102120.09;;;21.48;nan
56420;BME280;42323;52.170;7.538;2023-05-19T09:56:00;102117.78;;;21.97;nan
56420;BME280;42323;52.170;7.538;2023-05-19T09:58:31;102098.38;;;22.15;nan
56420;BME280;42323;52.170;7.538;2023-05-19T10:01:00;102106.97;;;22.48;nan
56420;BME280;42323;52.170;7.538;2023-05-19T10:03:27;102101.56;;;22.30;nan
56420;BME280;42323;52.170;7.538;2023-05-19T10:05:55;102103.66;;;22.28;nan
56420;BME280;42323;52.170;7.538;2023-05-19T10:08:22;102108.31;;;23.01;nan
56420;BME280;42323;52.170;7.538;2023-05-19T10:10:52;102104.88;;;23.67;nan
56420;BME280;42323;52.170;7.538;2023-05-19T10:13:20;102090.53;;;24.03;nan
56420;BME280;42323;52.170;7.538;2023-05-19T10:15:48;102098.16;;;25.00;nan
56420;BME280;42323;52.170;7.538;2023-05-19T10:18:24;102094.41;;;25.53;nan
56420;BME280;42323;52.170;7.538;2023-05-19T10:20:52;102087.75;;;26.01;nan
56420;BME280;42323;52.170;7.538;2023-05-19T10:23:19;102088.50;;;26.47;nan
56420;BME280;42323;52.170;7.538;2023-05-19T10:25:46;102083.31;;;26.80;nan
56420;BME280;42323;52.170;7.538;2023-05-19T10:28:16;102087.72;;;26.47;nan
56420;BME280;42323;52.170;7.538;2023-05-19T10:30:46;102096.25;;;25.65;nan
56420;BME280;42323;52.170;7.538;2023-05-19T10:33:16;102090.41;;;25.27;nan
56420;BME280;42323;52.170;7.538;2023-05-19T10:39:06;102084.56;;;27.16;nan
56420;BME280;42323;52.170;7.538;2023-05-19T10:41:46;102078.75;;;27.73;nan
56420;BME280;42323;52.170;7.538;2023-05-19T10:47:24;102062.94;;;28.19;nan
56420;BME280;42323;52.170;7.538;2023-05-19T10:49:52;102052.09;;;28.09;nan
56420;BME280;42323;52.170;7.538;2023-05-19T10:52:22;102057.59;;;27.87;nan
56420;BME280;42323;52.170;7.538;2023-05-19T10:54:52;102049.81;;;26.15;nan
56420;BME280;42323;52.170;7.538;2023-05-19T10:57:26;102057.78;;;27.26;nan
56420;BME280;42323;52.170;7.538;2023-05-19T11:00:02;102055.00;;;28.02;nan
56420;BME280;42323;52.170;7.538;2023-05-19T11:02:41;102057.81;;;28.55;nan
56420;BME280;42323;52.170;7.538;2023-05-19T11:05:13;102061.38;;;28.28;nan
56420;BME280;42323;52.170;7.538;2023-05-19T11:07:43;102055.13;;;28.60;nan
56420;BME280;42323;52.170;7.538;2023-05-19T11:10:10;102048.34;;;28.52;nan
56420;BME280;42323;52.170;7.538;2023-05-19T11:12:41;102060.44;;;28.97;nan
56420;BME280;42323;52.170;7.538;2023-05-19T11:15:10;102043.84;;;29.51;nan
56420;BME280;42323;52.170;7.538;2023-05-19T11:17:38;102038.66;;;27.77;nan
56420;BME280;42323;52.170;7.538;2023-05-19T11:20:08;102051.09;;;26.29;nan
56420;BME280;42323;52.170;7.538;2023-05-19T11:23:20;102050.41;;;25.26;nan
56420;BME280;42323;52.170;7.538;2023-05-19T11:25:50;102044.47;;;25.24;nan
56420;BME280;42323;52.170;7.538;2023-05-19T11:28:22;102056.44;;;25.62;nan
56420;BME280;42323;52.170;7.538;2023-05-19T11:30:55;102053.66;;;24.88;nan
56420;BME280;42323;52.170;7.538;2023-05-19T11:33:23;102047.69;;;24.03;nan
56420;BME280;42323;52.170;7.538;2023-05-19T11:35:55;102046.19;;;24.08;nan
56420;BME280;42323;52.170;7.538;2023-05-19T11:38:26;102049.72;;;24.32;nan
56420;BME280;42323;52.170;7.538;2023-05-19T11:40:54;102045.84;;;23.62;nan
56420;BME280;42323;52.170;7.538;2023-05-19T11:43:22;102044.66;;;23.88;nan
56420;BME280;42323;52.170;7.538;2023-05-19T11:45:50;102051.19;;;23.92;nan
56420;BME280;42323;52.170;7.538;2023-05-19T11:48:22;102044.75;;;25.11;nan
56420;BME280;42323;52.170;7.538;2023-05-19T11:50:50;102045.00;;;24.97;nan
56420;BME280;42323;52.170;7.538;2023-05-19T11:53:17;102038.75;;;26.89;nan
56420;BME280;42323;52.170;7.538;2023-05-19T11:55:47;102032.19;;;28.57;nan
56420;BME280;42323;52.170;7.538;2023-05-19T11:58:14;102022.47;;;29.24;nan
56420;BME280;42323;52.170;7.538;2023-05-19T12:00:43;102022.75;;;30.24;nan
56420;BME280;42323;52.170;7.538;2023-05-19T12:03:11;102020.81;;;31.05;nan
56420;BME280;42323;52.170;7.538;2023-05-19T12:05:43;102024.41;;;31.74;nan
56420;BME280;42323;52.170;7.538;2023-05-19T12:08:15;102016.16;;;30.51;nan
56420;BME280;42323;52.170;7.538;2023-05-19T12:10:47;102023.56;;;30.25;nan
56420;BME280;42323;52.170;7.538;2023-05-19T12:13:14;102017.06;;;28.09;nan
56420;BME280;42323;52.170;7.538;2023-05-19T12:15:41;102026.91;;;26.68;nan
56420;BME280;42323;52.170;7.538;2023-05-19T12:18:07;102027.09;;;28.66;nan
56420;BME280;42323;52.170;7.538;2023-05-19T12:20:34;102013.88;;;29.73;nan
56420;BME280;42323;52.170;7.538;2023-05-19T12:23:02;102013.41;;;30.61;nan
56420;BME280;42323;52.170;7.538;2023-05-19T12:25:29;102020.84;;;31.44;nan
56420;BME280;42323;52.170;7.538;2023-05-19T12:27:58;102004.44;;;31.94;nan
56420;BME280;42323;52.170;7.538;2023-05-19T12:30:26;102007.31;;;32.56;nan
56420;BME280;42323;52.170;7.538;2023-05-19T12:32:54;102007.09;;;32.95;nan
56420;BME280;42323;52.170;7.538;2023-05-19T12:35:29;101995.00;;;33.20;nan
56420;BME280;42323;52.170;7.538;2023-05-19T12:38:07;101997.59;;;32.92;nan
56420;BME280;42323;52.170;7.538;2023-05-19T12:40:35;102006.84;;;32.49;nan
56420;BME280;42323;52.170;7.538;2023-05-19T12:43:03;101990.69;;;32.38;nan
56420;BME280;42323;52.170;7.538;2023-05-19T12:45:35;101963.06;;;32.31;nan
56420;BME280;42323;52.170;7.538;2023-05-19T12:48:04;101970.84;;;32.62;nan
56420;BME280;42323;52.170;7.538;2023-05-19T12:50:32;101978.91;;;32.86;nan
56420;BME280;42323;52.170;7.538;2023-05-19T12:52:59;101984.19;;;32.77;nan
56420;BME280;42323;52.170;7.538;2023-05-19T12:55:26;102004.50;;;33.22;nan
56420;BME280;42323;52.170;7.538;2023-05-19T12:57:53;101976.66;;;33.31;nan
56420;BME280;42323;52.170;7.538;2023-05-19T13:00:23;101976.81;;;32.83;nan
56420;BME280;42323;52.170;7.538;2023-05-19T13:03:03;101982.47;;;30.08;nan
56420;BME280;42323;52.170;7.538;2023-05-19T13:05:35;101993.72;;;28.30;nan
56420;BME280;42323;52.170;7.538;2023-05-19T13:08:08;102000.91;;;27.17;nan
56420;BME280;42323;52.170;7.538;2023-05-19T13:10:36;101990.16;;;26.51;nan
56420;BME280;42323;52.170;7.538;2023-05-19T13:13:03;101993.81;;;25.90;nan
56420;BME280;42323;52.170;7.538;2023-05-19T13:15:31;101998.13;;;25.28;nan
56420;BME280;42323;52.170;7.538;2023-05-19T13:18:03;101986.31;;;27.40;nan
56420;BME280;42323;52.170;7.538;2023-05-19T13:20:31;101988.59;;;27.26;nan
56420;BME280;42323;52.170;7.538;2023-05-19T13:22:59;101984.25;;;26.16;nan
56420;BME280;42323;52.170;7.538;2023-05-19T13:25:26;101982.31;;;25.61;nan
56420;BME280;42323;52.170;7.538;2023-05-19T13:27:53;101969.44;;;25.63;nan
56420;BME280;42323;52.170;7.538;2023-05-19T13:30:20;101983.88;;;27.71;nan
56420;BME280;42323;52.170;7.538;2023-05-19T13:32:47;101979.50;;;29.17;nan
56420;BME280;42323;52.170;7.538;2023-05-19T13:35:14;101976.66;;;30.55;nan
56420;BME280;42323;52.170;7.538;2023-05-19T13:37:41;101976.81;;;31.29;nan
56420;BME280;42323;52.170;7.538;2023-05-19T13:40:08;101962.81;;;31.80;nan
56420;BME280;42323;52.170;7.538;2023-05-19T13:42:35;101965.09;;;32.44;nan
56420;BME280;42323;52.170;7.538;2023-05-19T13:45:02;101964.75;;;32.89;nan
56420;BME280;42323;52.170;7.538;2023-05-19T13:47:29;101967.06;;;33.33;nan